sensor_id;sensor_type;location;lat;lon;timestamp;pressure;altitude;pressure_sealevel;temperature;humidity
71195;BME280;58908;51.426;7.714;2023-12-14T00:01:45;98759.91;;;6.94;100.00
71195;BME280;58908;51.426;7.714;2023-12-14T00:04:15;98757.94;;;6.84;100.00
71195;BME280;58908;51.426;7.714;2023-12-14T00:06:41;98760.31;;;6.73;100.00
71195;BME280;58908;51.426;7.714;2023-12-14T00:09:07;98763.88;;;6.72;100.00
71195;BME280;58908;51.426;7.714;2023-12-14T00:11:37;98774.97;;;6.61;100.00
71195;BME280;58908;51.426;7.714;2023-12-14T00:14:03;98778.50;;;6.60;100.00
71195;BME280;58908;51.426;7.714;2023-12-14T00:16:29;98782.31;;;6.55;100.00
71195;BME280;58908;51.426;7.714;2023-12-14T00:18:56;98779.69;;;6.55;100.00
71195;BME280;58908;51.426;7.714;2023-12-14T00:21:23;98782.44;;;6.53;100.00
71195;BME280;58908;51.426;7.714;2023-12-14T00:23:50;98778.78;;;6.56;100.00
71195;BME280;58908;51.426;7.714;2023-12-14T00:26:16;98782.25;;;6.56;100.00
71195;BME280;58908;51.426;7.714;2023-12-14T00:28:42;98785.03;;;6.53;100.00
71195;BME280;58908;51.426;7.714;2023-12-14T00:31:09;98792.41;;;6.47;100.00
71195;BME280;58908;51.426;7.714;2023-12-14T00:33:35;98793.22;;;6.47;100.00
71195;BME280;58908;51.426;7.714;2023-12-14T00:36:02;98800.50;;;6.42;100.00
71195;BME280;58908;51.426;7.714;2023-12-14T00:38:29;98805.66;;;6.44;100.00
71195;BME280;58908;51.426;7.714;2023-12-14T00:40:56;98810.56;;;6.34;100.00
71195;BME280;58908;51.426;7.714;2023-12-14T00:43:22;98811.31;;;6.36;100.00
71195;BME280;58908;51.426;7.714;2023-12-14T00:45:48;98817.72;;;6.31;100.00
71195;BME280;58908;51.426;7.714;2023-12-14T00:48:14;98825.25;;;6.21;100.00
71195;BME280;58908;51.426;7.714;2023-12-14T00:50:41;98824.38;;;6.05;100.00
71195;BME280;58908;51.426;7.714;2023-12-14T00:53:07;98836.81;;;6.02;100.00
71195;BME280;58908;51.426;7.714;2023-12-14T00:55:35;98843.03;;;5.99;100.00
71195;BME280;58908;51.426;7.714;2023-12-14T00:58:01;98843.34;;;5.93;100.00
71195;BME280;58908;51.426;7.714;2023-12-14T01:00:27;98847.94;;;5.90;100.00
71195;BME280;58908;51.426;7.714;2023-12-14T01:02:55;98851.81;;;5.98;100.00
71195;BME280;58908;51.426;7.714;2023-12-14T01:05:22;98852.34;;;6.05;100.00
71195;BME280;58908;51.426;7.714;2023-12-14T01:07:48;98851.22;;;5.93;100.00
71195;BME280;58908;51.426;7.714;2023-12-14T01:10:14;98858.81;;;5.98;100.00
71195;BME280;58908;51.426;7.714;2023-12-14T01:12:42;98863.06;;;6.00;100.00
71195;BME280;58908;51.426;7.714;2023-12-14T01:15:09;98878.84;;;5.99;100.00
71195;BME280;58908;51.426;7.714;2023-12-14T01:17:35;98870.59;;;6.06;100.00
71195;BME280;58908;51.426;7.714;2023-12-14T01:20:03;98880.22;;;6.06;100.00
71195;BME280;58908;51.426;7.714;2023-12-14T01:22:29;98895.41;;;5.99;100.00
71195;BME280;58908;51.426;7.714;2023-12-14T01:24:55;98895.97;;;6.04;100.00
71195;BME280;58908;51.426;7.714;2023-12-14T01:27:22;98894.06;;;6.08;100.00
71195;BME280;58908;51.426;7.714;2023-12-14T01:29:49;98906.69;;;6.00;100.00
71195;BME280;58908;51.426;7.714;2023-12-14T01:32:16;98909.00;;;6.06;100.00
71195;BME280;58908;51.426;7.714;2023-12-14T01:34:42;98921.00;;;6.10;100.00
71195;BME280;58908;51.426;7.714;2023-12-14T01:37:08;98915.53;;;6.14;100.00
71195;BME280;58908;51.426;7.714;2023-12-14T01:39:34;98921.56;;;5.99;100.00
71195;BME280;58908;51.426;7.714;2023-12-14T01:42:01;98931.59;;;5.91;100.00
71195;BME280;58908;51.426;7.714;2023-12-14T01:44:27;98943.38;;;5.83;100.00
71195;BME280;58908;51.426;7.714;2023-12-14T01:46:54;98947.13;;;5.77;100.00
71195;BME280;58908;51.426;7.714;2023-12-14T01:49:21;98956.22;;;5.87;100.00
71195;BME280;58908;51.426;7.714;2023-12-14T01:51:47;98955.81;;;5.78;100.00
71195;BME280;58908;51.426;7.714;2023-12-14T01:54:13;98964.38;;;5.81;100.00
71195;BME280;58908;51.426;7.714;2023-12-14T01:56:39;98952.34;;;5.77;100.00
71195;BME280;58908;51.426;7.714;2023-12-14T01:59:06;98967.56;;;5.69;100.00
71195;BME280;58908;51.426;7.714;2023-12-14T02:01:34;98968.78;;;5.81;100.00
71195;BME280;58908;51.426;7.714;2023-12-14T02:04:03;98976.13;;;5.73;100.00
71195;BME280;58908;51.426;7.714;2023-12-14T02:06:31;98973.72;;;5.68;100.00
71195;BME280;58908;51.426;7.714;2023-12-14T02:08:57;98978.50;;;5.60;100.00
71195;BME280;58908;51.426;7.714;2023-12-14T02:11:23;98984.19;;;5.68;100.00
71195;BME280;58908;51.426;7.714;2023-12-14T02:13:50;98986.50;;;5.57;100.00
71195;BME280;58908;51.426;7.714;2023-12-14T02:16:16;98989.66;;;5.64;100.00
71195;BME280;58908;51.426;7.714;2023-12-14T02:18:42;98986.72;;;5.53;100.00
71195;BME280;58908;51.426;7.714;2023-12-14T02:21:10;98994.50;;;5.54;100.00
71195;BME280;58908;51.426;7.714;2023-12-14T02:23:43;98984.81;;;5.56;100.00
71195;BME280;58908;51.426;7.714;2023-12-14T02:26:09;98994.34;;;5.57;100.00
71195;BME280;58908;51.426;7.714;2023-12-14T02:28:35;99003.44;;;5.50;100.00
71195;BME280;58908;51.426;7.714;2023-12-14T02:31:02;99002.94;;;5.42;100.00
71195;BME280;58908;51.426;7.714;2023-12-14T02:33:28;99009.16;;;5.40;100.00
71195;BME280;58908;51.426;7.714;2023-12-14T02:35:54;99016.41;;;5.35;100.00
71195;BME280;58908;51.426;7.714;2023-12-14T02:38:20;99027.84;;;5.32;100.00
71195;BME280;58908;51.426;7.714;2023-12-14T02:40:48;99033.66;;;5.20;100.00
71195;BME280;58908;51.426;7.714;2023-12-14T02:43:15;99039.44;;;5.27;100.00
71195;BME280;58908;51.426;7.714;2023-12-14T02:45:41;99033.91;;;5.33;100.00
71195;BME280;58908;51.426;7.714;2023-12-14T02:48:07;99039.56;;;5.42;100.00
71195;BME280;58908;51.426;7.714;2023-12-14T02:50:34;99048.34;;;5.23;100.00
71195;BME280;58908;51.426;7.714;2023-12-14T02:53:00;99049.91;;;5.27;100.00
71195;BME280;58908;51.426;7.714;2023-12-14T02:55:26;99059.16;;;5.34;100.00
71195;BME280;58908;51.426;7.714;2023-12-14T02:57:54;99058.88;;;5.21;100.00
71195;BME280;58908;51.426;7.714;2023-12-14T03:00:20;99065.75;;;5.05;100.00
71195;BME280;58908;51.426;7.714;2023-12-14T03:02:46;99064.16;;;5.20;100.00
71195;BME280;58908;51.426;7.714;2023-12-14T03:05:13;99071.44;;;5.13;100.00
71195;BME280;58908;51.426;7.714;2023-12-14T03:07:39;99074.78;;;5.17;100.00
71195;BME280;58908;51.426;7.714;2023-12-14T03:10:06;99075.75;;;5.14;100.00
71195;BME280;58908;51.426;7.714;2023-12-14T03:12:32;99080.31;;;5.11;100.00
71195;BME280;58908;51.426;7.714;2023-12-14T03:15:00;99088.06;;;5.12;100.00
71195;BME280;58908;51.426;7.714;2023-12-14T03:17:26;99095.81;;;4.95;100.00
71195;BME280;58908;51.426;7.714;2023-12-14T03:19:52;99090.66;;;4.94;100.00
71195;BME280;58908;51.426;7.714;2023-12-14T03:22:19;99095.31;;;4.87;100.00
71195;BME280;58908;51.426;7.714;2023-12-14T03:24:45;99099.75;;;4.85;100.00
71195;BME280;58908;51.426;7.714;2023-12-14T03:27:11;99095.63;;;5.00;100.00
71195;BME280;58908;51.426;7.714;2023-12-14T03:29:38;99100.13;;;4.96;100.00
71195;BME280;58908;51.426;7.714;2023-12-14T03:32:05;99101.97;;;4.94;100.00
71195;BME280;58908;51.426;7.714;2023-12-14T03:34:32;99100.56;;;5.06;100.00
71195;BME280;58908;51.426;7.714;2023-12-14T03:36:58;99111.72;;;5.09;100.00
71195;BME280;58908;51.426;7.714;2023-12-14T03:39:24;99114.41;;;5.08;100.00
71195;BME280;58908;51.426;7.714;2023-12-14T03:41:50;99113.41;;;4.92;100.00
71195;BME280;58908;51.426;7.714;2023-12-14T03:44:17;99125.03;;;4.85;100.00
71195;BME280;58908;51.426;7.714;2023-12-14T03:46:43;99125.81;;;4.87;100.00
71195;BME280;58908;51.426;7.714;2023-12-14T03:49:11;99126.16;;;4.79;100.00
71195;BME280;58908;51.426;7.714;2023-12-14T03:51:37;99135.44;;;4.86;100.00
71195;BME280;58908;51.426;7.714;2023-12-14T03:54:03;99138.28;;;4.80;100.00
71195;BME280;58908;51.426;7.714;2023-12-14T03:56:29;99139.44;;;4.93;100.00
71195;BME280;58908;51.426;7.714;2023-12-14T03:58:56;99150.03;;;4.90;100.00
71195;BME280;58908;51.426;7.714;2023-12-14T04:01:23;99153.56;;;4.89;100.00
71195;BME280;58908;51.426;7.714;2023-12-14T04:03:49;99153.00;;;4.83;100.00
71195;BME280;58908;51.426;7.714;2023-12-14T04:06:17;99166.97;;;4.82;100.00
71195;BME280;58908;51.426;7.714;2023-12-14T04:08:43;99175.72;;;4.81;100.00
71195;BME280;58908;51.426;7.714;2023-12-14T04:11:09;99176.19;;;4.70;100.00
71195;BME280;58908;51.426;7.714;2023-12-14T04:13:35;99178.72;;;4.72;100.00
71195;BME280;58908;51.426;7.714;2023-12-14T04:16:02;99176.84;;;4.75;100.00
71195;BME280;58908;51.426;7.714;2023-12-14T04:18:28;99183.72;;;4.78;100.00
71195;BME280;58908;51.426;7.714;2023-12-14T04:20:55;99184.50;;;4.80;100.00
71195;BME280;58908;51.426;7.714;2023-12-14T04:23:22;99196.53;;;4.82;100.00
71195;BME280;58908;51.426;7.714;2023-12-14T04:25:48;99207.13;;;4.79;100.00
71195;BME280;58908;51.426;7.714;2023-12-14T04:28:15;99219.41;;;4.77;100.00
71195;BME280;58908;51.426;7.714;2023-12-14T04:30:41;99221.44;;;4.71;100.00
71195;BME280;58908;51.426;7.714;2023-12-14T04:33:07;99219.66;;;4.71;100.00
71195;BME280;58908;51.426;7.714;2023-12-14T04:35:33;99226.19;;;4.81;100.00
71195;BME280;58908;51.426;7.714;2023-12-14T04:38:01;99223.72;;;4.78;100.00
71195;BME280;58908;51.426;7.714;2023-12-14T04:40:29;99227.59;;;4.70;100.00
71195;BME280;58908;51.426;7.714;2023-12-14T04:42:55;99231.44;;;4.62;100.00
71195;BME280;58908;51.426;7.714;2023-12-14T04:45:21;99241.06;;;4.59;100.00
71195;BME280;58908;51.426;7.714;2023-12-14T04:47:47;99241.66;;;4.66;100.00
71195;BME280;58908;51.426;7.714;2023-12-14T04:50:14;99246.28;;;4.59;100.00
71195;BME280;58908;51.426;7.714;2023-12-14T04:52:40;99251.22;;;4.67;100.00
71195;BME280;58908;51.426;7.714;2023-12-14T04:55:07;99253.63;;;4.71;100.00
71195;BME280;58908;51.426;7.714;2023-12-14T04:57:34;99249.22;;;4.73;100.00
71195;BME280;58908;51.426;7.714;2023-12-14T05:00:01;99253.53;;;4.74;100.00
71195;BME280;58908;51.426;7.714;2023-12-14T05:02:28;99258.44;;;4.60;100.00
71195;BME280;58908;51.426;7.714;2023-12-14T05:04:54;99259.94;;;4.66;100.00
71195;BME280;58908;51.426;7.714;2023-12-14T05:07:20;99266.09;;;4.65;100.00
71195;BME280;58908;51.426;7.714;2023-12-14T05:09:48;99271.44;;;4.62;100.00
71195;BME280;58908;51.426;7.714;2023-12-14T05:12:15;99272.97;;;4.67;100.00
71195;BME280;58908;51.426;7.714;2023-12-14T05:14:42;99277.59;;;4.61;100.00
71195;BME280;58908;51.426;7.714;2023-12-14T05:17:09;99278.25;;;4.66;100.00
71195;BME280;58908;51.426;7.714;2023-12-14T05:19:36;99276.03;;;4.77;100.00
71195;BME280;58908;51.426;7.714;2023-12-14T05:22:02;99278.56;;;4.58;100.00
71195;BME280;58908;51.426;7.714;2023-12-14T05:24:28;99284.50;;;4.62;100.00
71195;BME280;58908;51.426;7.714;2023-12-14T05:26:54;99283.19;;;4.52;100.00
71195;BME280;58908;51.426;7.714;2023-12-14T05:29:21;99292.72;;;4.53;100.00
71195;BME280;58908;51.426;7.714;2023-12-14T05:31:49;99290.22;;;4.50;100.00
71195;BME280;58908;51.426;7.714;2023-12-14T05:34:16;99296.50;;;4.46;100.00
71195;BME280;58908;51.426;7.714;2023-12-14T05:36:42;99296.78;;;4.39;100.00
71195;BME280;58908;51.426;7.714;2023-12-14T05:39:08;99296.56;;;4.45;100.00
71195;BME280;58908;51.426;7.714;2023-12-14T05:41:39;99308.34;;;4.55;100.00
71195;BME280;58908;51.426;7.714;2023-12-14T05:44:05;99311.16;;;4.49;100.00
71195;BME280;58908;51.426;7.714;2023-12-14T05:46:31;99321.75;;;4.46;100.00
71195;BME280;58908;51.426;7.714;2023-12-14T05:48:59;99320.69;;;4.50;100.00
71195;BME280;58908;51.426;7.714;2023-12-14T05:51:25;99330.63;;;4.42;100.00
71195;BME280;58908;51.426;7.714;2023-12-14T05:53:52;99328.38;;;4.33;100.00
71195;BME280;58908;51.426;7.714;2023-12-14T05:56:18;99333.22;;;4.42;100.00
71195;BME280;58908;51.426;7.714;2023-12-14T05:58:44;99339.41;;;4.39;100.00
71195;BME280;58908;51.426;7.714;2023-12-14T06:01:10;99336.94;;;4.36;100.00
71195;BME280;58908;51.426;7.714;2023-12-14T06:03:37;99346.28;;;4.42;100.00
71195;BME280;58908;51.426;7.714;2023-12-14T06:06:05;99344.88;;;4.33;100.00
71195;BME280;58908;51.426;7.714;2023-12-14T06:08:31;99351.81;;;4.34;100.00
71195;BME280;58908;51.426;7.714;2023-12-14T06:10:57;99352.34;;;4.42;100.00
71195;BME280;58908;51.426;7.714;2023-12-14T06:13:23;99361.97;;;4.42;100.00
71195;BME280;58908;51.426;7.714;2023-12-14T06:15:50;99358.44;;;4.43;100.00
71195;BME280;58908;51.426;7.714;2023-12-14T06:18:16;99366.75;;;4.31;100.00
71195;BME280;58908;51.426;7.714;2023-12-14T06:20:43;99373.94;;;4.24;100.00
71195;BME280;58908;51.426;7.714;2023-12-14T06:23:10;99382.50;;;4.28;100.00
71195;BME280;58908;51.426;7.714;2023-12-14T06:25:36;99382.16;;;4.37;100.00
71195;BME280;58908;51.426;7.714;2023-12-14T06:28:03;99387.91;;;4.23;100.00
71195;BME280;58908;51.426;7.714;2023-12-14T06:30:29;99392.44;;;4.18;100.00
71195;BME280;58908;51.426;7.714;2023-12-14T06:32:55;99402.72;;;4.23;100.00
71195;BME280;58908;51.426;7.714;2023-12-14T06:35:22;99402.13;;;4.15;100.00
71195;BME280;58908;51.426;7.714;2023-12-14T06:37:48;99404.69;;;4.16;100.00
71195;BME280;58908;51.426;7.714;2023-12-14T06:40:16;99409.47;;;4.28;100.00
71195;BME280;58908;51.426;7.714;2023-12-14T06:42:42;99414.09;;;4.20;100.00
71195;BME280;58908;51.426;7.714;2023-12-14T06:45:09;99406.53;;;4.14;100.00
71195;BME280;58908;51.426;7.714;2023-12-14T06:47:35;99424.84;;;4.13;100.00
71195;BME280;58908;51.426;7.714;2023-12-14T06:50:01;99428.16;;;4.18;100.00
71195;BME280;58908;51.426;7.714;2023-12-14T06:52:28;99434.09;;;4.21;100.00
71195;BME280;58908;51.426;7.714;2023-12-14T06:54:54;99437.59;;;4.20;100.00
71195;BME280;58908;51.426;7.714;2023-12-14T06:57:22;99439.03;;;4.29;100.00
71195;BME280;58908;51.426;7.714;2023-12-14T06:59:48;99447.09;;;4.23;100.00
71195;BME280;58908;51.426;7.714;2023-12-14T07:02:14;99455.94;;;4.19;100.00
71195;BME280;58908;51.426;7.714;2023-12-14T07:04:40;99463.63;;;4.23;100.00
71195;BME280;58908;51.426;7.714;2023-12-14T07:07:07;99472.78;;;4.33;100.00
71195;BME280;58908;51.426;7.714;2023-12-14T07:09:34;99472.63;;;4.38;100.00
71195;BME280;58908;51.426;7.714;2023-12-14T07:12:01;99482.00;;;4.43;100.00
71195;BME280;58908;51.426;7.714;2023-12-14T07:14:29;99481.38;;;4.37;100.00
71195;BME280;58908;51.426;7.714;2023-12-14T07:16:55;99486.66;;;4.35;100.00
71195;BME280;58908;51.426;7.714;2023-12-14T07:19:21;99489.19;;;4.14;100.00
71195;BME280;58908;51.426;7.714;2023-12-14T07:21:47;99505.69;;;4.14;100.00
71195;BME280;58908;51.426;7.714;2023-12-14T07:24:13;99514.38;;;4.15;100.00
71195;BME280;58908;51.426;7.714;2023-12-14T07:26:39;99509.91;;;4.18;100.00
71195;BME280;58908;51.426;7.714;2023-12-14T07:29:05;99512.19;;;4.27;100.00
71195;BME280;58908;51.426;7.714;2023-12-14T07:31:33;99522.50;;;4.30;100.00
71195;BME280;58908;51.426;7.714;2023-12-14T07:33:59;99524.00;;;4.37;100.00
71195;BME280;58908;51.426;7.714;2023-12-14T07:36:25;99535.94;;;4.20;100.00
71195;BME280;58908;51.426;7.714;2023-12-14T07:38:52;99532.97;;;4.06;100.00
71195;BME280;58908;51.426;7.714;2023-12-14T07:41:19;99532.31;;;4.24;100.00
71195;BME280;58908;51.426;7.714;2023-12-14T07:43:48;99532.91;;;4.32;100.00
71195;BME280;58908;51.426;7.714;2023-12-14T07:46:14;99542.84;;;4.22;100.00
71195;BME280;58908;51.426;7.714;2023-12-14T07:48:42;99547.31;;;4.19;100.00
71195;BME280;58908;51.426;7.714;2023-12-14T07:51:08;99550.72;;;4.21;100.00
71195;BME280;58908;51.426;7.714;2023-12-14T07:53:34;99556.53;;;4.29;100.00
71195;BME280;58908;51.426;7.714;2023-12-14T07:56:00;99567.13;;;4.24;100.00
71195;BME280;58908;51.426;7.714;2023-12-14T07:58:27;99568.94;;;4.22;100.00
71195;BME280;58908;51.426;7.714;2023-12-14T08:00:54;99571.84;;;4.13;100.00
71195;BME280;58908;51.426;7.714;2023-12-14T08:03:20;99580.91;;;4.03;100.00
71195;BME280;58908;51.426;7.714;2023-12-14T08:05:48;99583.41;;;4.06;100.00
71195;BME280;58908;51.426;7.714;2023-12-14T08:08:14;99591.34;;;4.03;100.00
71195;BME280;58908;51.426;7.714;2023-12-14T08:10:41;99598.91;;;4.11;100.00
71195;BME280;58908;51.426;7.714;2023-12-14T08:13:07;99596.19;;;4.14;100.00
71195;BME280;58908;51.426;7.714;2023-12-14T08:15:33;99605.63;;;4.18;100.00
71195;BME280;58908;51.426;7.714;2023-12-14T08:17:59;99618.63;;;4.19;100.00
71195;BME280;58908;51.426;7.714;2023-12-14T08:20:26;99621.06;;;4.24;100.00
71195;BME280;58908;51.426;7.714;2023-12-14T08:22:53;99621.03;;;4.25;100.00
71195;BME280;58908;51.426;7.714;2023-12-14T08:25:19;99626.19;;;4.27;100.00
71195;BME280;58908;51.426;7.714;2023-12-14T08:27:46;99625.50;;;4.22;100.00
71195;BME280;58908;51.426;7.714;2023-12-14T08:30:12;99639.06;;;4.07;100.00
71195;BME280;58908;51.426;7.714;2023-12-14T08:32:39;99640.41;;;4.18;100.00
71195;BME280;58908;51.426;7.714;2023-12-14T08:35:05;99643.22;;;4.12;100.00
71195;BME280;58908;51.426;7.714;2023-12-14T08:37:32;99655.13;;;4.21;100.00
71195;BME280;58908;51.426;7.714;2023-12-14T08:39:59;99652.66;;;4.16;100.00
71195;BME280;58908;51.426;7.714;2023-12-14T08:42:25;99661.66;;;4.08;100.00
71195;BME280;58908;51.426;7.714;2023-12-14T08:44:52;99663.47;;;4.06;100.00
71195;BME280;58908;51.426;7.714;2023-12-14T08:47:18;99667.13;;;4.00;100.00
71195;BME280;58908;51.426;7.714;2023-12-14T08:49:44;99675.78;;;4.01;100.00
71195;BME280;58908;51.426;7.714;2023-12-14T08:52:10;99672.16;;;4.05;100.00
71195;BME280;58908;51.426;7.714;2023-12-14T08:54:37;99688.97;;;3.96;100.00
71195;BME280;58908;51.426;7.714;2023-12-14T08:57:04;99688.88;;;3.99;100.00
71195;BME280;58908;51.426;7.714;2023-12-14T08:59:31;99700.66;;;4.12;100.00
71195;BME280;58908;51.426;7.714;2023-12-14T09:01:57;99702.06;;;4.22;100.00
71195;BME280;58908;51.426;7.714;2023-12-14T09:04:23;99699.63;;;4.16;100.00
71195;BME280;58908;51.426;7.714;2023-12-14T09:06:49;99711.88;;;4.14;100.00
71195;BME280;58908;51.426;7.714;2023-12-14T09:09:16;99719.25;;;4.02;100.00
71195;BME280;58908;51.426;7.714;2023-12-14T09:11:43;99715.69;;;4.04;100.00
71195;BME280;58908;51.426;7.714;2023-12-14T09:14:11;99719.25;;;4.02;100.00
71195;BME280;58908;51.426;7.714;2023-12-14T09:16:37;99726.53;;;4.18;100.00
71195;BME280;58908;51.426;7.714;2023-12-14T09:19:03;99725.13;;;4.08;100.00
71195;BME280;58908;51.426;7.714;2023-12-14T09:21:30;99737.19;;;4.12;100.00
71195;BME280;58908;51.426;7.714;2023-12-14T09:23:56;99739.47;;;4.21;100.00
71195;BME280;58908;51.426;7.714;2023-12-14T09:26:22;99737.38;;;4.32;100.00
71195;BME280;58908;51.426;7.714;2023-12-14T09:28:48;99739.09;;;4.33;100.00
71195;BME280;58908;51.426;7.714;2023-12-14T09:31:16;99748.34;;;4.43;100.00
71195;BME280;58908;51.426;7.714;2023-12-14T09:33:42;99748.47;;;4.39;100.00
71195;BME280;58908;51.426;7.714;2023-12-14T09:36:09;99759.94;;;4.35;100.00
71195;BME280;58908;51.426;7.714;2023-12-14T09:38:35;99768.69;;;4.34;100.00
71195;BME280;58908;51.426;7.714;2023-12-14T09:41:02;99779.25;;;4.02;100.00
71195;BME280;58908;51.426;7.714;2023-12-14T09:43:29;99781.69;;;4.08;100.00
71195;BME280;58908;51.426;7.714;2023-12-14T09:45:55;99789.06;;;3.94;100.00
71195;BME280;58908;51.426;7.714;2023-12-14T09:48:23;99789.06;;;3.94;100.00
71195;BME280;58908;51.426;7.714;2023-12-14T09:50:50;99791.63;;;3.97;100.00
71195;BME280;58908;51.426;7.714;2023-12-14T09:53:16;99797.53;;;4.02;100.00
71195;BME280;58908;51.426;7.714;2023-12-14T09:55:43;99795.69;;;4.05;100.00
71195;BME280;58908;51.426;7.714;2023-12-14T09:58:09;99801.69;;;4.09;100.00
71195;BME280;58908;51.426;7.714;2023-12-14T10:00:38;99805.84;;;3.85;100.00
71195;BME280;58908;51.426;7.714;2023-12-14T10:03:18;99805.44;;;4.00;100.00
71195;BME280;58908;51.426;7.714;2023-12-14T10:05:46;99810.84;;;4.22;100.00
71195;BME280;58908;51.426;7.714;2023-12-14T10:08:13;99818.47;;;4.28;100.00
71195;BME280;58908;51.426;7.714;2023-12-14T10:10:39;99821.06;;;4.28;100.00
71195;BME280;58908;51.426;7.714;2023-12-14T10:13:05;99820.13;;;4.30;100.00
71195;BME280;58908;51.426;7.714;2023-12-14T10:15:39;99827.84;;;4.33;100.00
71195;BME280;58908;51.426;7.714;2023-12-14T10:18:06;99828.53;;;4.12;100.00
71195;BME280;58908;51.426;7.714;2023-12-14T10:20:32;99834.84;;;4.05;100.00
71195;BME280;58908;51.426;7.714;2023-12-14T10:23:00;99840.53;;;3.90;100.00
71195;BME280;58908;51.426;7.714;2023-12-14T10:25:26;99841.91;;;4.02;100.00
71195;BME280;58908;51.426;7.714;2023-12-14T10:27:53;99849.44;;;4.12;100.00
71195;BME280;58908;51.426;7.714;2023-12-14T10:30:19;99850.53;;;4.04;100.00
71195;BME280;58908;51.426;7.714;2023-12-14T10:32:46;99854.09;;;4.01;100.00
71195;BME280;58908;51.426;7.714;2023-12-14T10:35:13;99853.81;;;4.10;100.00
71195;BME280;58908;51.426;7.714;2023-12-14T10:37:41;99854.66;;;4.12;100.00
71195;BME280;58908;51.426;7.714;2023-12-14T10:40:09;99856.47;;;4.09;100.00
71195;BME280;58908;51.426;7.714;2023-12-14T10:42:36;99860.94;;;4.05;100.00
71195;BME280;58908;51.426;7.714;2023-12-14T10:45:03;99866.94;;;4.09;100.00
71195;BME280;58908;51.426;7.714;2023-12-14T10:47:29;99862.88;;;3.99;100.00
71195;BME280;58908;51.426;7.714;2023-12-14T10:49:56;99867.09;;;4.03;100.00
71195;BME280;58908;51.426;7.714;2023-12-14T10:52:22;99867.16;;;4.01;100.00
71195;BME280;58908;51.426;7.714;2023-12-14T10:54:51;99867.91;;;4.05;100.00
71195;BME280;58908;51.426;7.714;2023-12-14T10:57:20;99875.53;;;4.12;100.00
71195;BME280;58908;51.426;7.714;2023-12-14T10:59:48;99881.78;;;4.07;100.00
71195;BME280;58908;51.426;7.714;2023-12-14T11:02:14;99878.72;;;4.22;100.00
71195;BME280;58908;51.426;7.714;2023-12-14T11:04:56;99887.19;;;4.30;100.00
71195;BME280;58908;51.426;7.714;2023-12-14T11:07:43;99883.03;;;4.23;100.00
71195;BME280;58908;51.426;7.714;2023-12-14T11:10:09;99891.13;;;4.14;100.00
71195;BME280;58908;51.426;7.714;2023-12-14T11:12:37;99896.19;;;4.20;100.00
71195;BME280;58908;51.426;7.714;2023-12-14T11:15:04;99894.25;;;4.26;100.00
71195;BME280;58908;51.426;7.714;2023-12-14T11:17:31;99899.50;;;4.25;100.00
71195;BME280;58908;51.426;7.714;2023-12-14T11:20:03;99902.88;;;4.28;100.00
71195;BME280;58908;51.426;7.714;2023-12-14T11:22:49;99913.34;;;4.27;100.00
71195;BME280;58908;51.426;7.714;2023-12-14T11:25:16;99910.81;;;4.25;100.00
71195;BME280;58908;51.426;7.714;2023-12-14T11:27:43;99925.56;;;4.26;100.00
71195;BME280;58908;51.426;7.714;2023-12-14T11:30:10;99921.06;;;4.31;100.00
71195;BME280;58908;51.426;7.714;2023-12-14T11:32:37;99929.13;;;4.24;100.00
71195;BME280;58908;51.426;7.714;2023-12-14T11:35:03;99943.19;;;4.18;100.00
71195;BME280;58908;51.426;7.714;2023-12-14T11:37:33;99946.38;;;3.99;100.00
71195;BME280;58908;51.426;7.714;2023-12-14T11:40:02;99952.53;;;3.96;100.00
71195;BME280;58908;51.426;7.714;2023-12-14T11:42:32;99947.41;;;3.93;100.00
71195;BME280;58908;51.426;7.714;2023-12-14T11:45:00;99950.03;;;3.92;100.00
71195;BME280;58908;51.426;7.714;2023-12-14T11:47:28;99954.69;;;3.81;100.00
71195;BME280;58908;51.426;7.714;2023-12-14T11:49:54;99948.53;;;3.83;100.00
71195;BME280;58908;51.426;7.714;2023-12-14T11:52:21;99961.91;;;3.71;100.00
71195;BME280;58908;51.426;7.714;2023-12-14T11:54:47;99962.97;;;3.64;100.00
71195;BME280;58908;51.426;7.714;2023-12-14T11:57:14;99963.66;;;3.71;100.00
71195;BME280;58908;51.426;7.714;2023-12-14T11:59:42;99959.00;;;3.82;100.00
71195;BME280;58908;51.426;7.714;2023-12-14T12:02:12;99966.09;;;3.78;100.00
71195;BME280;58908;51.426;7.714;2023-12-14T12:04:49;99956.41;;;3.82;100.00
71195;BME280;58908;51.426;7.714;2023-12-14T12:07:15;99953.41;;;3.97;100.00
71195;BME280;58908;51.426;7.714;2023-12-14T12:09:44;99956.25;;;3.88;100.00
71195;BME280;58908;51.426;7.714;2023-12-14T12:12:11;99964.41;;;3.76;100.00
71195;BME280;58908;51.426;7.714;2023-12-14T12:14:38;99963.59;;;3.74;100.00
71195;BME280;58908;51.426;7.714;2023-12-14T12:17:05;99960.13;;;3.73;100.00
71195;BME280;58908;51.426;7.714;2023-12-14T12:19:33;99960.88;;;3.78;100.00
71195;BME280;58908;51.426;7.714;2023-12-14T12:22:00;99969.97;;;3.94;100.00
71195;BME280;58908;51.426;7.714;2023-12-14T12:24:26;99964.22;;;3.82;100.00
71195;BME280;58908;51.426;7.714;2023-12-14T12:26:53;99963.31;;;3.83;100.00
71195;BME280;58908;51.426;7.714;2023-12-14T12:29:19;99967.84;;;3.76;100.00
71195;BME280;58908;51.426;7.714;2023-12-14T12:31:45;99974.72;;;3.80;100.00
71195;BME280;58908;51.426;7.714;2023-12-14T12:34:12;99968.50;;;3.86;100.00
71195;BME280;58908;51.426;7.714;2023-12-14T12:36:39;99977.78;;;3.96;100.00
71195;BME280;58908;51.426;7.714;2023-12-14T12:39:06;99972.16;;;4.09;100.00
71195;BME280;58908;51.426;7.714;2023-12-14T12:41:33;99973.56;;;4.22;100.00
71195;BME280;58908;51.426;7.714;2023-12-14T12:44:02;99964.47;;;4.35;100.00
71195;BME280;58908;51.426;7.714;2023-12-14T12:46:33;99970.50;;;4.07;100.00
71195;BME280;58908;51.426;7.714;2023-12-14T12:49:00;99977.31;;;4.12;100.00
71195;BME280;58908;51.426;7.714;2023-12-14T12:51:27;99975.53;;;4.13;100.00
71195;BME280;58908;51.426;7.714;2023-12-14T12:53:56;99976.47;;;3.80;100.00
71195;BME280;58908;51.426;7.714;2023-12-14T12:56:22;99976.31;;;3.86;100.00
71195;BME280;58908;51.426;7.714;2023-12-14T12:58:49;99978.75;;;3.92;100.00